KII835 KMEM-KMSY
Flight info
| Callsign | KII835 |
|---|---|
| Flight time | 0h 49m |
| Altitude | 34000 |
| Route | PIEPE6 IBUFY MCB TRSSH1 |
| Aircraft | B738/M-SDE2E3FGHIRWXY/LB1 |
Departure
| Time | 2026-05-05 14:23 |
|---|---|
| Airport | Memphis International Airport (KMEM) |
Arrival
| Time | 2026-05-05 15:12 |
|---|---|
| Airport | Louis Armstrong New Orleans International Airport (KMSY) |
| Time | Latitude | Longitude | Altitude | Speed | Heading |
|---|---|---|---|---|---|
| 2026-05-05 13:53 | 35.04948 | -89.96885 | 327 ft | 0 kts | 169° |
| 2026-05-05 13:56 | 35.04949 | -89.96885 | 330 ft | 0 kts | 169° |
| 2026-05-05 13:56 | 35.04948 | -89.96885 | 330 ft | 0 kts | 169° |
| 2026-05-05 13:58 | 35.04949 | -89.96885 | 330 ft | 0 kts | 169° |
| 2026-05-05 13:58 | 35.04948 | -89.96885 | 330 ft | 0 kts | 169° |
| 2026-05-05 13:59 | 35.04949 | -89.96885 | 330 ft | 0 kts | 169° |
| 2026-05-05 14:00 | 35.04948 | -89.96885 | 311 ft | 0 kts | 169° |
| 2026-05-05 14:12 | 35.04949 | -89.96886 | 330 ft | 1 kts | 169° |
| 2026-05-05 14:12 | 35.04970 | -89.96890 | 327 ft | 3 kts | 174° |
| 2026-05-05 14:12 | 35.04992 | -89.96891 | 329 ft | 3 kts | 186° |
| 2026-05-05 14:12 | 35.05014 | -89.96885 | 327 ft | 3 kts | 215° |
| 2026-05-05 14:13 | 35.05025 | -89.96870 | 325 ft | 1 kts | 256° |
| 2026-05-05 14:13 | 35.05026 | -89.96865 | 325 ft | 0 kts | 256° |
| 2026-05-05 14:15 | 35.05025 | -89.96867 | 325 ft | 1 kts | 256° |
| 2026-05-05 14:15 | 35.05019 | -89.96897 | 328 ft | 5 kts | 256° |
| 2026-05-05 14:15 | 35.05009 | -89.96946 | 328 ft | 7 kts | 256° |
| 2026-05-05 14:16 | 35.04999 | -89.96999 | 329 ft | 6 kts | 258° |
| 2026-05-05 14:16 | 35.05014 | -89.97049 | 328 ft | 8 kts | 318° |
| 2026-05-05 14:16 | 35.05080 | -89.97059 | 328 ft | 12 kts | 9° |
| 2026-05-05 14:16 | 35.05168 | -89.97041 | 327 ft | 13 kts | 9° |
| 2026-05-05 14:17 | 35.05265 | -89.97022 | 328 ft | 15 kts | 8° |
| 2026-05-05 14:17 | 35.05374 | -89.97002 | 327 ft | 17 kts | 9° |
| 2026-05-05 14:17 | 35.05489 | -89.96980 | 328 ft | 16 kts | 9° |
| 2026-05-05 14:17 | 35.05595 | -89.96960 | 328 ft | 12 kts | 8° |
| 2026-05-05 14:18 | 35.05654 | -89.97013 | 327 ft | 12 kts | 279° |
| 2026-05-05 14:18 | 35.05657 | -89.97116 | 327 ft | 12 kts | 272° |
| 2026-05-05 14:18 | 35.05646 | -89.97221 | 327 ft | 13 kts | 241° |
| 2026-05-05 14:18 | 35.05606 | -89.97294 | 328 ft | 1 kts | 235° |
| 2026-05-05 14:19 | 35.05605 | -89.97295 | 328 ft | 0 kts | 235° |
| 2026-05-05 14:20 | 35.05593 | -89.97316 | 326 ft | 5 kts | 235° |
| 2026-05-05 14:20 | 35.05568 | -89.97360 | 329 ft | 8 kts | 234° |
| 2026-05-05 14:20 | 35.05526 | -89.97432 | 327 ft | 12 kts | 235° |
| 2026-05-05 14:20 | 35.05469 | -89.97530 | 325 ft | 15 kts | 234° |
| 2026-05-05 14:21 | 35.05407 | -89.97612 | 322 ft | 10 kts | 199° |
| 2026-05-05 14:21 | 35.05372 | -89.97615 | 323 ft | 0 kts | 178° |
| 2026-05-05 14:22 | 35.05342 | -89.97614 | 323 ft | 27 kts | 179° |
| 2026-05-05 14:22 | 35.04881 | -89.97606 | 321 ft | 99 kts | 179° |
| 2026-05-05 14:22 | 35.03997 | -89.97588 | 327 ft | 153 kts | 179° |
| 2026-05-05 14:23 | 35.02832 | -89.97562 | 666 ft | 174 kts | 178° |
| 2026-05-05 14:23 | 35.01663 | -89.97523 | 1647 ft | 157 kts | 181° |
| 2026-05-05 14:23 | 35.00627 | -89.97473 | 2625 ft | 151 kts | 185° |
| 2026-05-05 14:23 | 34.99478 | -89.97455 | 2946 ft | 180 kts | 187° |
| 2026-05-05 14:24 | 34.98133 | -89.97459 | 3118 ft | 207 kts | 185° |
| 2026-05-05 14:24 | 34.96615 | -89.97439 | 3353 ft | 230 kts | 185° |
| 2026-05-05 14:24 | 34.94963 | -89.97406 | 3897 ft | 242 kts | 184° |
| 2026-05-05 14:24 | 34.93277 | -89.97367 | 4751 ft | 245 kts | 183° |
| 2026-05-05 14:25 | 34.91557 | -89.97328 | 5521 ft | 250 kts | 183° |
| 2026-05-05 14:25 | 34.89805 | -89.97290 | 6309 ft | 253 kts | 183° |
| 2026-05-05 14:25 | 34.88038 | -89.97253 | 7077 ft | 256 kts | 183° |
| 2026-05-05 14:25 | 34.86241 | -89.97339 | 7762 ft | 260 kts | 188° |
| 2026-05-05 14:26 | 34.84423 | -89.97530 | 8506 ft | 263 kts | 189° |
| 2026-05-05 14:26 | 34.82589 | -89.97734 | 9270 ft | 267 kts | 189° |
| 2026-05-05 14:26 | 34.80723 | -89.97937 | 9962 ft | 272 kts | 189° |
| 2026-05-05 14:26 | 34.78790 | -89.98144 | 10332 ft | 289 kts | 189° |
| 2026-05-05 14:27 | 34.76705 | -89.98363 | 10498 ft | 312 kts | 189° |
| 2026-05-05 14:27 | 34.74465 | -89.98592 | 10651 ft | 333 kts | 189° |
| 2026-05-05 14:27 | 34.72087 | -89.98831 | 10789 ft | 353 kts | 188° |
| 2026-05-05 14:27 | 34.69616 | -89.99133 | 11207 ft | 359 kts | 194° |
| 2026-05-05 14:28 | 34.67237 | -90.00014 | 11805 ft | 357 kts | 204° |
| 2026-05-05 14:28 | 34.64915 | -90.01100 | 12493 ft | 358 kts | 205° |
| 2026-05-05 14:28 | 34.62579 | -90.02194 | 13125 ft | 362 kts | 205° |
| 2026-05-05 14:28 | 34.60213 | -90.03284 | 13738 ft | 366 kts | 204° |
| 2026-05-05 14:29 | 34.57811 | -90.04370 | 14299 ft | 370 kts | 204° |
| 2026-05-05 14:29 | 34.55378 | -90.05456 | 14840 ft | 375 kts | 205° |
| 2026-05-05 14:29 | 34.52907 | -90.06553 | 15383 ft | 380 kts | 205° |
| 2026-05-05 14:29 | 34.50406 | -90.07660 | 15952 ft | 385 kts | 205° |
| 2026-05-05 14:30 | 34.47876 | -90.08779 | 16500 ft | 389 kts | 205° |
| 2026-05-05 14:30 | 34.45236 | -90.09692 | 16926 ft | 404 kts | 194° |
| 2026-05-05 14:30 | 34.42396 | -90.10012 | 17424 ft | 413 kts | 190° |
| 2026-05-05 14:30 | 34.39561 | -90.10299 | 17945 ft | 416 kts | 192° |
| 2026-05-05 14:31 | 34.36668 | -90.10661 | 18416 ft | 420 kts | 192° |
| 2026-05-05 14:31 | 34.33706 | -90.11064 | 18880 ft | 424 kts | 193° |
| 2026-05-05 14:31 | 34.30807 | -90.11463 | 19367 ft | 426 kts | 193° |
| 2026-05-05 14:31 | 34.27809 | -90.11874 | 19854 ft | 429 kts | 193° |
| 2026-05-05 14:32 | 34.25837 | -90.12143 | 20146 ft | 432 kts | 193° |
| 2026-05-05 14:32 | 34.22839 | -90.12551 | 20583 ft | 435 kts | 193° |
| 2026-05-05 14:32 | 34.19817 | -90.12959 | 20994 ft | 439 kts | 193° |
| 2026-05-05 14:32 | 34.15775 | -90.13504 | 21521 ft | 444 kts | 193° |
| 2026-05-05 14:33 | 34.12692 | -90.13919 | 21914 ft | 447 kts | 193° |
| 2026-05-05 14:33 | 34.09585 | -90.14337 | 22306 ft | 451 kts | 193° |
| 2026-05-05 14:33 | 34.06445 | -90.14656 | 22679 ft | 457 kts | 191° |
| 2026-05-05 14:33 | 34.03249 | -90.14829 | 23047 ft | 461 kts | 189° |
| 2026-05-05 14:34 | 34.01075 | -90.14905 | 23286 ft | 464 kts | 189° |
| 2026-05-05 14:34 | 33.97837 | -90.14996 | 23620 ft | 467 kts | 189° |
| 2026-05-05 14:34 | 33.94579 | -90.15086 | 23878 ft | 470 kts | 189° |
| 2026-05-05 14:34 | 33.91298 | -90.15189 | 24138 ft | 473 kts | 189° |
| 2026-05-05 14:35 | 33.88003 | -90.15305 | 24408 ft | 475 kts | 189° |
| 2026-05-05 14:35 | 33.84693 | -90.15432 | 24705 ft | 477 kts | 190° |
| 2026-05-05 14:35 | 33.81370 | -90.15567 | 24994 ft | 479 kts | 190° |
| 2026-05-05 14:35 | 33.78033 | -90.15707 | 25277 ft | 481 kts | 190° |
| 2026-05-05 14:36 | 33.74727 | -90.15847 | 25542 ft | 483 kts | 190° |
| 2026-05-05 14:36 | 33.71316 | -90.15991 | 25815 ft | 485 kts | 190° |
| 2026-05-05 14:36 | 33.67937 | -90.16134 | 26047 ft | 487 kts | 190° |
| 2026-05-05 14:36 | 33.64583 | -90.16275 | 26284 ft | 490 kts | 190° |
| 2026-05-05 14:37 | 33.61169 | -90.16419 | 26516 ft | 492 kts | 190° |
| 2026-05-05 14:37 | 33.57695 | -90.16564 | 26769 ft | 494 kts | 190° |
| 2026-05-05 14:37 | 33.54253 | -90.16707 | 27022 ft | 496 kts | 190° |
| 2026-05-05 14:37 | 33.50846 | -90.16849 | 27258 ft | 498 kts | 190° |
| 2026-05-05 14:38 | 33.47383 | -90.16993 | 27479 ft | 500 kts | 190° |
| 2026-05-05 14:38 | 33.43897 | -90.17138 | 27695 ft | 502 kts | 191° |
| 2026-05-05 14:38 | 33.40406 | -90.17283 | 27911 ft | 503 kts | 191° |
| 2026-05-05 14:38 | 33.36904 | -90.17427 | 28189 ft | 504 kts | 191° |
| 2026-05-05 14:39 | 33.33407 | -90.17570 | 28540 ft | 502 kts | 191° |
| 2026-05-05 14:39 | 33.29920 | -90.17712 | 28911 ft | 501 kts | 191° |
| 2026-05-05 14:39 | 33.26437 | -90.17854 | 29254 ft | 500 kts | 191° |
| 2026-05-05 14:39 | 33.22958 | -90.17998 | 29565 ft | 500 kts | 191° |
| 2026-05-05 14:40 | 33.19477 | -90.18142 | 29887 ft | 500 kts | 191° |
| 2026-05-05 14:40 | 33.15997 | -90.18287 | 30202 ft | 500 kts | 191° |
| 2026-05-05 14:40 | 33.12526 | -90.18430 | 30506 ft | 498 kts | 192° |
| 2026-05-05 14:40 | 33.09067 | -90.18572 | 30842 ft | 497 kts | 192° |
| 2026-05-05 14:41 | 33.05609 | -90.18714 | 31121 ft | 497 kts | 192° |
| 2026-05-05 14:41 | 33.02149 | -90.18858 | 31386 ft | 498 kts | 192° |
| 2026-05-05 14:41 | 32.98690 | -90.19001 | 31673 ft | 498 kts | 192° |
| 2026-05-05 14:41 | 32.95230 | -90.19144 | 31987 ft | 497 kts | 192° |
| 2026-05-05 14:42 | 32.91778 | -90.19285 | 32298 ft | 497 kts | 193° |
| 2026-05-05 14:42 | 32.88323 | -90.19427 | 32541 ft | 496 kts | 193° |
| 2026-05-05 14:42 | 32.84870 | -90.19570 | 32794 ft | 497 kts | 193° |
| 2026-05-05 14:42 | 32.81412 | -90.19712 | 33075 ft | 497 kts | 193° |
| 2026-05-05 14:43 | 32.77957 | -90.19853 | 33391 ft | 497 kts | 193° |
| 2026-05-05 14:43 | 32.74504 | -90.19994 | 33719 ft | 495 kts | 193° |
| 2026-05-05 14:43 | 32.71061 | -90.20134 | 33982 ft | 496 kts | 193° |
| 2026-05-05 14:43 | 32.67600 | -90.20278 | 33960 ft | 499 kts | 193° |
| 2026-05-05 14:44 | 32.60674 | -90.20560 | 33951 ft | 496 kts | 193° |
| 2026-05-05 14:44 | 32.53787 | -90.20837 | 33975 ft | 494 kts | 193° |
| 2026-05-05 14:45 | 32.46925 | -90.21116 | 33987 ft | 493 kts | 193° |
| 2026-05-05 14:45 | 32.40068 | -90.21397 | 33982 ft | 493 kts | 193° |
| 2026-05-05 14:46 | 32.33212 | -90.21676 | 33955 ft | 493 kts | 193° |
| 2026-05-05 14:46 | 32.26367 | -90.21954 | 33985 ft | 493 kts | 193° |
| 2026-05-05 14:47 | 32.19510 | -90.22232 | 33991 ft | 493 kts | 193° |
| 2026-05-05 14:47 | 32.12641 | -90.22511 | 33990 ft | 495 kts | 193° |
| 2026-05-05 14:48 | 32.05752 | -90.22789 | 33953 ft | 495 kts | 193° |
| 2026-05-05 14:48 | 31.98867 | -90.23065 | 33975 ft | 496 kts | 193° |
| 2026-05-05 14:49 | 31.91971 | -90.23342 | 33987 ft | 496 kts | 193° |
| 2026-05-05 14:49 | 31.85121 | -90.23617 | 33995 ft | 496 kts | 193° |
| 2026-05-05 14:50 | 31.78221 | -90.23894 | 33963 ft | 496 kts | 193° |
| 2026-05-05 14:50 | 31.71331 | -90.24169 | 33747 ft | 498 kts | 193° |
| 2026-05-05 14:51 | 31.67853 | -90.24313 | 33067 ft | 500 kts | 192° |
| 2026-05-05 14:51 | 31.64384 | -90.24450 | 32363 ft | 498 kts | 192° |
| 2026-05-05 14:51 | 31.60917 | -90.24587 | 31625 ft | 499 kts | 192° |
| 2026-05-05 14:51 | 31.57448 | -90.24726 | 30857 ft | 500 kts | 191° |
| 2026-05-05 14:52 | 31.53966 | -90.24866 | 30026 ft | 502 kts | 191° |
| 2026-05-05 14:52 | 31.50466 | -90.25007 | 29011 ft | 504 kts | 190° |
| 2026-05-05 14:52 | 31.46957 | -90.25146 | 28109 ft | 505 kts | 189° |
| 2026-05-05 14:52 | 31.43443 | -90.25284 | 27153 ft | 505 kts | 189° |
| 2026-05-05 14:53 | 31.39927 | -90.25423 | 26168 ft | 506 kts | 189° |
| 2026-05-05 14:53 | 31.36412 | -90.25562 | 25260 ft | 505 kts | 188° |
| 2026-05-05 14:53 | 31.32918 | -90.25698 | 24531 ft | 499 kts | 188° |
| 2026-05-05 14:53 | 31.29470 | -90.25816 | 23932 ft | 492 kts | 186° |
| 2026-05-05 14:54 | 31.26056 | -90.25717 | 23224 ft | 489 kts | 182° |
| 2026-05-05 14:54 | 31.22682 | -90.25442 | 22430 ft | 484 kts | 181° |
| 2026-05-05 14:54 | 31.19342 | -90.25113 | 21710 ft | 478 kts | 181° |
| 2026-05-05 14:54 | 31.16049 | -90.24797 | 21005 ft | 472 kts | 181° |
| 2026-05-05 14:55 | 31.12794 | -90.24512 | 20310 ft | 467 kts | 182° |
| 2026-05-05 14:55 | 31.09567 | -90.24256 | 19590 ft | 463 kts | 182° |
| 2026-05-05 14:55 | 31.06368 | -90.24019 | 18879 ft | 459 kts | 182° |
| 2026-05-05 14:55 | 31.03195 | -90.23790 | 18154 ft | 456 kts | 182° |
| 2026-05-05 14:56 | 31.00039 | -90.23564 | 17379 ft | 452 kts | 182° |
| 2026-05-05 14:56 | 30.96918 | -90.23339 | 16676 ft | 447 kts | 182° |
| 2026-05-05 14:56 | 30.93837 | -90.23115 | 15975 ft | 441 kts | 181° |
| 2026-05-05 14:56 | 30.90787 | -90.22891 | 15305 ft | 436 kts | 181° |
| 2026-05-05 14:57 | 30.87776 | -90.22671 | 14694 ft | 430 kts | 181° |
| 2026-05-05 14:57 | 30.84837 | -90.22454 | 14000 ft | 419 kts | 180° |
| 2026-05-05 14:57 | 30.81969 | -90.22243 | 13294 ft | 408 kts | 180° |
| 2026-05-05 14:57 | 30.79176 | -90.22039 | 12620 ft | 397 kts | 180° |
| 2026-05-05 14:58 | 30.76451 | -90.21841 | 12085 ft | 385 kts | 180° |
| 2026-05-05 14:58 | 30.73855 | -90.21650 | 11943 ft | 364 kts | 180° |
| 2026-05-05 14:58 | 30.71389 | -90.21469 | 11782 ft | 349 kts | 180° |
| 2026-05-05 14:58 | 30.68988 | -90.21295 | 11652 ft | 342 kts | 180° |
| 2026-05-05 14:59 | 30.66636 | -90.21125 | 11509 ft | 336 kts | 180° |
| 2026-05-05 14:59 | 30.64339 | -90.20972 | 11366 ft | 325 kts | 184° |
| 2026-05-05 14:59 | 30.62173 | -90.21368 | 11240 ft | 309 kts | 201° |
| 2026-05-05 14:59 | 30.60139 | -90.22172 | 10878 ft | 308 kts | 204° |
| 2026-05-05 15:00 | 30.58137 | -90.23042 | 10520 ft | 307 kts | 204° |
| 2026-05-05 15:00 | 30.56818 | -90.23628 | 10287 ft | 305 kts | 205° |
| 2026-05-05 15:00 | 30.54292 | -90.25074 | 9823 ft | 301 kts | 212° |
| 2026-05-05 15:00 | 30.52499 | -90.26249 | 9446 ft | 299 kts | 213° |
| 2026-05-05 15:01 | 30.50757 | -90.27602 | 9070 ft | 297 kts | 218° |
| 2026-05-05 15:01 | 30.49090 | -90.29005 | 8713 ft | 295 kts | 218° |
| 2026-05-05 15:01 | 30.47461 | -90.30396 | 8465 ft | 289 kts | 218° |
| 2026-05-05 15:01 | 30.45884 | -90.31754 | 8230 ft | 283 kts | 218° |
| 2026-05-05 15:02 | 30.44328 | -90.33101 | 7996 ft | 275 kts | 218° |
| 2026-05-05 15:02 | 30.42812 | -90.34419 | 7780 ft | 271 kts | 218° |
| 2026-05-05 15:02 | 30.41316 | -90.35726 | 7563 ft | 268 kts | 218° |
| 2026-05-05 15:02 | 30.39840 | -90.37021 | 7345 ft | 265 kts | 218° |
| 2026-05-05 15:03 | 30.38376 | -90.38313 | 7138 ft | 264 kts | 218° |
| 2026-05-05 15:03 | 30.36915 | -90.39610 | 6914 ft | 264 kts | 218° |
| 2026-05-05 15:03 | 30.35464 | -90.40908 | 6711 ft | 264 kts | 218° |
| 2026-05-05 15:03 | 30.34013 | -90.42212 | 6498 ft | 264 kts | 218° |
| 2026-05-05 15:04 | 30.32572 | -90.43515 | 6281 ft | 263 kts | 219° |
| 2026-05-05 15:04 | 30.31137 | -90.44816 | 6059 ft | 262 kts | 218° |
| 2026-05-05 15:04 | 30.29712 | -90.46114 | 5835 ft | 261 kts | 219° |
| 2026-05-05 15:04 | 30.28274 | -90.47426 | 5621 ft | 265 kts | 219° |
| 2026-05-05 15:05 | 30.25350 | -90.50098 | 5189 ft | 271 kts | 219° |
| 2026-05-05 15:05 | 30.23803 | -90.51342 | 5026 ft | 271 kts | 205° |
| 2026-05-05 15:05 | 30.21988 | -90.51884 | 4881 ft | 271 kts | 191° |
| 2026-05-05 15:06 | 30.20111 | -90.52187 | 4624 ft | 271 kts | 189° |
| 2026-05-05 15:06 | 30.18233 | -90.52262 | 4328 ft | 272 kts | 175° |
| 2026-05-05 15:06 | 30.16388 | -90.51744 | 3951 ft | 277 kts | 157° |
| 2026-05-05 15:06 | 30.14784 | -90.50492 | 3602 ft | 277 kts | 146° |
| 2026-05-05 15:07 | 30.13283 | -90.49155 | 3223 ft | 269 kts | 146° |
| 2026-05-05 15:07 | 30.11810 | -90.47870 | 2845 ft | 262 kts | 147° |
| 2026-05-05 15:07 | 30.10361 | -90.46640 | 2470 ft | 256 kts | 147° |
| 2026-05-05 15:07 | 30.08940 | -90.45457 | 2130 ft | 246 kts | 147° |
| 2026-05-05 15:08 | 30.07602 | -90.44359 | 2027 ft | 225 kts | 148° |
| 2026-05-05 15:08 | 30.06394 | -90.43367 | 1986 ft | 203 kts | 149° |
| 2026-05-05 15:08 | 30.05300 | -90.42472 | 1982 ft | 184 kts | 149° |
| 2026-05-05 15:08 | 30.04301 | -90.41657 | 1971 ft | 169 kts | 149° |
| 2026-05-05 15:09 | 30.03344 | -90.40879 | 1999 ft | 166 kts | 149° |
| 2026-05-05 15:09 | 30.02545 | -90.39942 | 1865 ft | 173 kts | 119° |
| 2026-05-05 15:09 | 30.02201 | -90.38603 | 1696 ft | 175 kts | 112° |
| 2026-05-05 15:09 | 30.01854 | -90.37251 | 1476 ft | 178 kts | 112° |
| 2026-05-05 15:10 | 30.01519 | -90.35877 | 1262 ft | 176 kts | 110° |
| 2026-05-05 15:10 | 30.01196 | -90.34533 | 1066 ft | 171 kts | 110° |
| 2026-05-05 15:10 | 30.00894 | -90.33277 | 852 ft | 156 kts | 111° |
| 2026-05-05 15:10 | 30.00618 | -90.32145 | 725 ft | 142 kts | 110° |
| 2026-05-05 15:11 | 30.00359 | -90.31059 | 554 ft | 139 kts | 110° |
| 2026-05-05 15:11 | 30.00093 | -90.29966 | 384 ft | 144 kts | 110° |
| 2026-05-05 15:11 | 29.99828 | -90.28850 | 155 ft | 143 kts | 111° |
| 2026-05-05 15:11 | 29.99570 | -90.27763 | 10 ft | 135 kts | 110° |
| 2026-05-05 15:12 | 29.99358 | -90.26907 | 9 ft | 80 kts | 105° |
| 2026-05-05 15:12 | 29.99265 | -90.26537 | 8 ft | 16 kts | 121° |
| 2026-05-05 15:12 | 29.99218 | -90.26506 | 10 ft | 11 kts | 171° |
| 2026-05-05 15:12 | 29.99131 | -90.26468 | 8 ft | 17 kts | 121° |
| 2026-05-05 15:13 | 29.99103 | -90.26375 | 6 ft | 7 kts | 106° |
| 2026-05-05 15:13 | 29.99090 | -90.26322 | 5 ft | 3 kts | 107° |
| 2026-05-05 15:13 | 29.99090 | -90.26321 | 5 ft | 0 kts | 107° |
| 2026-05-05 15:13 | 29.99089 | -90.26319 | 5 ft | 0 kts | 107° |
| 2026-05-05 15:14 | 29.99088 | -90.26315 | 7 ft | 0 kts | 107° |
| 2026-05-05 15:14 | 29.99087 | -90.26311 | 7 ft | 1 kts | 107° |
| 2026-05-05 15:14 | 29.99086 | -90.26306 | 6 ft | 1 kts | 107° |
| 2026-05-05 15:14 | 29.99084 | -90.26299 | 6 ft | 1 kts | 107° |
| 2026-05-05 15:15 | 29.99068 | -90.26274 | 5 ft | 7 kts | 145° |
| 2026-05-05 15:15 | 29.99016 | -90.26277 | 6 ft | 11 kts | 195° |
| 2026-05-05 15:15 | 29.98943 | -90.26303 | 6 ft | 10 kts | 211° |
| 2026-05-05 15:15 | 29.98940 | -90.26369 | 8 ft | 6 kts | 284° |
| 2026-05-05 15:16 | 29.98943 | -90.26383 | 8 ft | 0 kts | 284° |